createdAt,value
2022-12-14T00:02:03.260Z,27.93
2022-12-14T00:04:52.016Z,25.53
2022-12-14T00:07:40.695Z,32.00
2022-12-14T00:10:29.338Z,25.90
2022-12-14T00:13:17.862Z,21.90
2022-12-14T00:16:13.045Z,25.27
2022-12-14T00:19:02.585Z,26.37
2022-12-14T00:21:51.348Z,22.13
2022-12-14T00:24:39.807Z,20.80
2022-12-14T00:27:28.531Z,26.37
2022-12-14T00:30:19.025Z,23.43
2022-12-14T00:33:08.824Z,24.80
2022-12-14T00:35:57.351Z,24.83
2022-12-14T00:38:46.110Z,25.87
2022-12-14T00:41:34.914Z,23.30
2022-12-14T00:44:23.369Z,26.30
2022-12-14T00:47:11.852Z,24.67
2022-12-14T00:50:01.607Z,22.07
2022-12-14T00:52:50.052Z,24.00
2022-12-14T00:55:40.077Z,23.17
2022-12-14T00:58:28.944Z,27.77
2022-12-14T01:01:17.798Z,24.70
2022-12-14T01:04:19.702Z,22.20
2022-12-14T01:07:09.632Z,26.53
2022-12-14T01:09:58.067Z,25.73
2022-12-14T01:12:46.515Z,25.33
2022-12-14T01:15:35.897Z,26.27
2022-12-14T01:18:24.383Z,26.57
2022-12-14T01:21:14.768Z,25.17
2022-12-14T01:24:06.346Z,28.20
2022-12-14T01:26:54.790Z,29.53
2022-12-14T01:29:43.281Z,26.30
2022-12-14T01:32:32.021Z,23.60
2022-12-14T01:35:20.551Z,23.70
2022-12-14T01:38:09.056Z,20.70
2022-12-14T01:40:59.883Z,22.93
2022-12-14T01:43:49.959Z,26.83
2022-12-14T01:46:41.471Z,23.07
2022-12-14T01:49:33.600Z,23.37
2022-12-14T01:52:25.237Z,26.30
2022-12-14T01:55:16.438Z,24.10
2022-12-14T01:58:08.386Z,22.03
2022-12-14T02:00:58.543Z,24.80
2022-12-14T02:03:49.168Z,24.37
2022-12-14T02:06:39.318Z,25.23
2022-12-14T02:09:30.716Z,25.30
2022-12-14T02:12:21.803Z,24.03
2022-12-14T02:15:12.883Z,24.80
2022-12-14T02:18:03.468Z,22.70
2022-12-14T02:21:07.032Z,25.10
2022-12-14T02:24:35.305Z,22.97
2022-12-14T02:27:44.006Z,25.03
2022-12-14T02:30:36.176Z,25.10
2022-12-14T02:33:34.390Z,24.77
2022-12-14T02:36:29.601Z,24.50
2022-12-14T02:39:23.502Z,20.43
2022-12-14T02:42:14.772Z,24.23
2022-12-14T02:45:08.622Z,23.90
2022-12-14T02:48:02.319Z,26.10
2022-12-14T02:50:55.595Z,29.53
2022-12-14T02:53:47.620Z,24.40
2022-12-14T02:56:40.821Z,22.83
2022-12-14T02:59:29.635Z,26.00
2022-12-14T03:02:18.327Z,27.80
2022-12-14T03:05:09.127Z,23.80
2022-12-14T03:07:59.191Z,22.80
2022-12-14T03:10:51.089Z,26.37
2022-12-14T03:13:46.161Z,30.00
2022-12-14T03:16:41.198Z,24.90
2022-12-14T03:19:32.018Z,23.70
2022-12-14T03:22:26.034Z,26.20
2022-12-14T03:25:15.975Z,25.63
2022-12-14T03:28:08.152Z,24.63
2022-12-14T03:31:01.049Z,25.90
2022-12-14T03:33:51.158Z,24.93
2022-12-14T03:36:43.855Z,24.33
2022-12-14T03:39:35.092Z,24.77
2022-12-14T03:42:25.642Z,24.73
2022-12-14T03:45:18.967Z,27.87
2022-12-14T03:48:13.614Z,22.80
2022-12-14T03:51:09.844Z,21.40
2022-12-14T03:54:04.797Z,26.47
2022-12-14T03:56:57.928Z,19.60
2022-12-14T03:59:49.797Z,25.97
2022-12-14T04:02:43.654Z,25.00
2022-12-14T04:05:35.553Z,25.77
2022-12-14T04:08:29.907Z,25.63
2022-12-14T04:11:37.308Z,23.53
2022-12-14T04:14:48.531Z,23.53
2022-12-14T04:17:55.740Z,21.60
2022-12-14T04:20:47.457Z,22.70
2022-12-14T04:23:58.818Z,24.10
2022-12-14T04:26:52.690Z,24.17
2022-12-14T04:30:00.807Z,25.10
2022-12-14T04:32:51.524Z,20.97
2022-12-14T04:35:41.852Z,27.27
2022-12-14T04:38:34.312Z,28.47
2022-12-14T04:41:25.398Z,24.70
2022-12-14T04:44:16.961Z,29.83
2022-12-14T04:47:09.309Z,27.30
2022-12-14T04:50:01.579Z,23.93
2022-12-14T04:52:53.486Z,26.87
2022-12-14T04:55:47.367Z,25.73
2022-12-14T04:58:37.809Z,29.10
2022-12-14T05:01:36.405Z,28.23
2022-12-14T05:04:35.360Z,26.07
2022-12-14T05:07:34.551Z,24.87
2022-12-14T05:10:28.833Z,26.97
2022-12-14T05:13:22.512Z,25.50
2022-12-14T05:16:11.396Z,25.90
2022-12-14T05:18:59.888Z,24.53
2022-12-14T05:21:49.701Z,28.83
2022-12-14T05:24:38.165Z,27.70
2022-12-14T05:27:26.607Z,22.30
2022-12-14T05:30:15.178Z,31.57
2022-12-14T05:33:03.701Z,27.10
2022-12-14T05:35:52.129Z,26.80
2022-12-14T05:38:42.124Z,30.40
2022-12-14T05:41:30.566Z,27.37
2022-12-14T05:44:19.036Z,28.10
2022-12-14T05:47:07.631Z,32.53
2022-12-14T05:49:56.133Z,27.53
2022-12-14T05:52:45.108Z,28.47
2022-12-14T05:55:34.992Z,27.23
2022-12-14T05:58:23.460Z,32.50
2022-12-14T06:01:18.837Z,30.67
2022-12-14T06:04:07.975Z,33.33
2022-12-14T06:06:56.606Z,33.30
2022-12-14T06:09:45.042Z,29.33
2022-12-14T06:12:34.899Z,36.27
2022-12-14T06:15:27.186Z,34.57
2022-12-14T06:18:18.885Z,29.73
2022-12-14T06:21:07.371Z,34.07
2022-12-14T06:23:56.685Z,32.20
2022-12-14T06:26:45.311Z,38.40
2022-12-14T06:29:35.138Z,39.43
2022-12-14T06:32:23.953Z,34.37
2022-12-14T06:35:12.458Z,38.13
2022-12-14T06:38:00.920Z,39.53
2022-12-14T06:40:49.397Z,36.60
2022-12-14T06:43:37.939Z,42.43
2022-12-14T06:46:27.804Z,35.73
2022-12-14T06:49:17.111Z,32.60
2022-12-14T06:52:05.923Z,46.93
2022-12-14T06:54:54.378Z,41.87
2022-12-14T06:57:42.882Z,35.80
2022-12-14T07:00:31.353Z,40.33
2022-12-14T07:03:21.172Z,38.57
2022-12-14T07:06:10.461Z,38.70
2022-12-14T07:09:00.252Z,39.57
2022-12-14T07:11:50.870Z,45.30
2022-12-14T07:14:39.401Z,39.00
2022-12-14T07:17:27.924Z,43.43
2022-12-14T07:20:18.001Z,45.63
2022-12-14T07:23:06.575Z,35.93
2022-12-14T07:25:55.059Z,36.40
2022-12-14T07:28:45.511Z,36.63
2022-12-14T07:31:34.116Z,34.73
2022-12-14T07:34:22.614Z,42.83
2022-12-14T07:37:15.027Z,40.13
2022-12-14T07:40:04.430Z,39.47
2022-12-14T07:42:52.912Z,34.57
2022-12-14T07:45:41.324Z,40.57
2022-12-14T07:48:30.137Z,39.23
2022-12-14T07:51:20.653Z,38.40
2022-12-14T07:54:12.458Z,45.87
2022-12-14T07:57:00.936Z,37.50
2022-12-14T07:59:52.951Z,35.00
2022-12-14T08:02:45.798Z,36.50
2022-12-14T08:05:34.518Z,39.20
2022-12-14T08:08:22.970Z,40.53
2022-12-14T08:11:13.148Z,35.37
2022-12-14T08:14:03.234Z,40.33
2022-12-14T08:16:51.780Z,42.50
2022-12-14T08:19:40.302Z,41.40
2022-12-14T08:22:28.883Z,35.50
2022-12-14T08:25:17.527Z,35.50
2022-12-14T08:28:07.703Z,39.47
2022-12-14T08:30:56.613Z,39.83
2022-12-14T08:33:46.039Z,40.77
2022-12-14T08:36:35.609Z,40.03
2022-12-14T08:39:24.392Z,37.40
2022-12-14T08:42:12.862Z,38.70
2022-12-14T08:45:02.812Z,41.30
2022-12-14T08:47:51.278Z,43.50
2022-12-14T08:50:39.828Z,47.83
2022-12-14T08:53:28.737Z,47.23
2022-12-14T08:56:20.034Z,46.73
2022-12-14T08:59:08.550Z,46.23
2022-12-14T09:01:58.523Z,47.10
2022-12-14T09:04:47.150Z,50.63
2022-12-14T09:07:35.591Z,46.90
2022-12-14T09:10:24.116Z,47.73
2022-12-14T09:13:13.178Z,45.97
2022-12-14T09:16:03.787Z,40.77
2022-12-14T09:18:53.633Z,46.10
2022-12-14T09:21:42.297Z,38.43
2022-12-14T09:24:30.921Z,43.67
2022-12-14T09:27:19.411Z,47.33
2022-12-14T09:30:08.727Z,43.50
2022-12-14T09:32:57.196Z,45.17
2022-12-14T09:35:47.028Z,42.40
2022-12-14T09:38:36.962Z,45.40
2022-12-14T09:41:34.292Z,43.67
2022-12-14T09:44:30.119Z,42.93
2022-12-14T09:47:20.784Z,48.47
2022-12-14T09:50:14.333Z,46.93
2022-12-14T09:53:07.465Z,48.13
2022-12-14T09:55:57.655Z,43.63
2022-12-14T09:58:53.734Z,43.57
2022-12-14T10:02:29.310Z,49.73
2022-12-14T10:05:29.583Z,42.63
2022-12-14T10:08:22.677Z,42.07
2022-12-14T10:11:14.761Z,44.60
2022-12-14T10:14:10.996Z,46.50
2022-12-14T10:17:05.860Z,46.03
2022-12-14T10:19:55.762Z,41.03
2022-12-14T10:22:47.365Z,44.87
2022-12-14T10:25:40.022Z,45.73
2022-12-14T10:28:38.447Z,40.57
2022-12-14T10:31:31.695Z,46.00
2022-12-14T10:34:22.746Z,43.43
2022-12-14T10:37:24.766Z,39.87
2022-12-14T10:40:31.169Z,38.57
2022-12-14T10:43:35.996Z,43.17
2022-12-14T10:46:28.895Z,39.37
2022-12-14T10:49:20.553Z,40.27
2022-12-14T10:52:12.348Z,45.33
2022-12-14T10:55:03.831Z,39.43
2022-12-14T10:57:52.269Z,41.47
2022-12-14T11:00:42.170Z,42.40
2022-12-14T11:03:30.940Z,39.30
2022-12-14T11:06:20.479Z,40.53
2022-12-14T11:09:20.886Z,37.33
2022-12-14T11:12:18.274Z,40.10
2022-12-14T11:15:07.659Z,41.27
2022-12-14T11:18:04.998Z,45.33
2022-12-14T11:20:56.306Z,42.43
2022-12-14T11:23:45.985Z,38.80
2022-12-14T11:26:36.893Z,39.80
2022-12-14T11:29:30.832Z,42.17
2022-12-14T11:32:21.844Z,42.17
2022-12-14T11:35:16.693Z,39.37
2022-12-14T11:38:05.672Z,35.17
2022-12-14T11:40:54.160Z,38.90
2022-12-14T11:43:42.660Z,39.80
2022-12-14T11:46:45.881Z,36.83
2022-12-14T11:49:35.795Z,43.07
2022-12-14T11:52:27.619Z,41.23
2022-12-14T11:55:24.613Z,43.13
2022-12-14T11:58:18.243Z,40.87
2022-12-14T12:01:07.933Z,45.87
2022-12-14T12:03:58.325Z,47.03
2022-12-14T12:06:47.049Z,47.60
2022-12-14T12:09:37.122Z,51.00
2022-12-14T12:12:25.623Z,50.60
2022-12-14T12:15:18.305Z,43.87
2022-12-14T12:18:14.316Z,43.23
2022-12-14T12:21:06.924Z,47.30
2022-12-14T12:23:59.248Z,43.83
2022-12-14T12:26:51.681Z,45.20
2022-12-14T12:29:42.792Z,42.33
2022-12-14T12:32:34.930Z,49.33
2022-12-14T12:35:37.270Z,42.27
2022-12-14T12:38:39.270Z,46.50
2022-12-14T12:41:33.220Z,48.00
2022-12-14T12:44:33.311Z,42.87
2022-12-14T12:47:38.457Z,47.33
2022-12-14T12:50:36.787Z,42.83
2022-12-14T12:53:30.222Z,43.20
2022-12-14T12:56:22.310Z,49.77
2022-12-14T12:59:15.704Z,47.23
2022-12-14T13:02:17.506Z,42.87
2022-12-14T13:05:44.435Z,44.73
2022-12-14T13:08:24.573Z,44.53
2022-12-14T13:11:26.030Z,44.10
2022-12-14T13:14:20.948Z,45.77
2022-12-14T13:17:19.197Z,39.20
2022-12-14T13:20:17.432Z,47.37
2022-12-14T13:23:44.342Z,44.60
2022-12-14T13:27:15.318Z,43.03
2022-12-14T13:30:19.065Z,43.67
2022-12-14T13:33:34.972Z,46.50
2022-12-14T13:37:04.047Z,42.93
2022-12-14T13:40:14.003Z,43.80
2022-12-14T13:43:21.151Z,43.60
2022-12-14T13:46:14.949Z,42.50
2022-12-14T13:49:08.735Z,42.63
2022-12-14T13:51:57.649Z,43.47
2022-12-14T13:54:47.942Z,39.13
2022-12-14T13:57:36.467Z,48.33
2022-12-14T14:00:58.849Z,50.20
2022-12-14T14:03:55.355Z,44.37
2022-12-14T14:06:46.062Z,44.20
2022-12-14T14:09:59.799Z,48.97
2022-12-14T14:12:48.312Z,45.93
2022-12-14T14:16:26.371Z,43.83
2022-12-14T14:19:04.652Z,53.17
2022-12-14T14:22:24.903Z,46.70
2022-12-14T14:25:40.899Z,53.00
2022-12-14T14:28:30.882Z,46.80
2022-12-14T14:31:19.910Z,44.73
2022-12-14T14:34:21.820Z,46.43
2022-12-14T14:37:31.868Z,41.37
2022-12-14T14:40:44.172Z,50.40
2022-12-14T14:43:37.425Z,46.60
2022-12-14T14:46:34.524Z,47.53
2022-12-14T14:49:25.838Z,50.63
2022-12-14T14:52:47.513Z,51.53
2022-12-14T14:55:59.291Z,50.83
2022-12-14T14:58:48.094Z,50.53
2022-12-14T15:01:36.787Z,52.40
2022-12-14T15:04:31.918Z,46.70
2022-12-14T15:07:23.082Z,52.40
2022-12-14T15:10:23.811Z,52.20
2022-12-14T15:13:19.715Z,50.97
2022-12-14T15:16:22.259Z,49.90
2022-12-14T15:19:24.752Z,52.80
2022-12-14T15:22:16.121Z,52.10
2022-12-14T15:25:05.632Z,58.20
2022-12-14T15:27:57.471Z,58.10
2022-12-14T15:30:47.847Z,60.10
2022-12-14T15:33:38.054Z,53.20
2022-12-14T15:36:29.890Z,52.30
2022-12-14T15:39:40.212Z,54.70
2022-12-14T15:42:28.924Z,51.33
2022-12-14T15:45:21.390Z,48.77
2022-12-14T15:48:14.412Z,51.20
2022-12-14T15:51:04.054Z,49.90
2022-12-14T15:53:54.478Z,52.63
2022-12-14T15:56:45.271Z,45.90
2022-12-14T15:59:35.976Z,54.30
2022-12-14T16:02:29.067Z,52.13
2022-12-14T16:05:20.361Z,50.77
2022-12-14T16:08:10.335Z,49.40
2022-12-14T16:11:00.738Z,47.43
2022-12-14T16:13:49.919Z,51.50
2022-12-14T16:16:38.831Z,52.03
2022-12-14T16:19:44.966Z,45.00
2022-12-14T16:22:41.482Z,49.17
2022-12-14T16:25:30.849Z,49.87
2022-12-14T16:28:22.143Z,43.37
2022-12-14T16:31:19.870Z,48.00
2022-12-14T16:34:10.638Z,47.80
2022-12-14T16:37:30.918Z,47.17
2022-12-14T16:40:22.693Z,44.97
2022-12-14T16:43:30.759Z,49.53
2022-12-14T16:46:19.614Z,44.77
2022-12-14T16:49:23.319Z,47.50
2022-12-14T16:52:19.855Z,42.23
2022-12-14T16:55:14.208Z,47.17
2022-12-14T16:58:02.795Z,50.03
2022-12-14T17:00:58.643Z,51.37
2022-12-14T17:04:01.528Z,48.30
2022-12-14T17:06:52.005Z,42.37
2022-12-14T17:09:41.923Z,46.23
2022-12-14T17:12:30.480Z,49.70
2022-12-14T17:15:21.424Z,49.67
2022-12-14T17:18:11.008Z,46.20
2022-12-14T17:21:00.236Z,50.00
2022-12-14T17:23:48.967Z,42.67
2022-12-14T17:26:39.083Z,47.83
2022-12-14T17:29:28.906Z,44.37
2022-12-14T17:32:18.129Z,45.77
2022-12-14T17:35:10.397Z,41.50
2022-12-14T17:37:59.608Z,39.83
2022-12-14T17:40:49.533Z,39.63
2022-12-14T17:43:45.918Z,41.27
2022-12-14T17:46:39.861Z,41.07
2022-12-14T17:49:34.860Z,40.63
2022-12-14T17:52:27.391Z,35.10
2022-12-14T17:55:18.448Z,40.80
2022-12-14T17:58:07.036Z,38.10
2022-12-14T18:01:03.277Z,39.37
2022-12-14T18:03:52.364Z,41.90
2022-12-14T18:06:41.055Z,39.63
2022-12-14T18:09:29.599Z,43.07
2022-12-14T18:12:25.444Z,36.60
2022-12-14T18:15:19.867Z,39.77
2022-12-14T18:18:10.146Z,41.07
2022-12-14T18:21:01.551Z,39.37
2022-12-14T18:23:50.406Z,41.70
2022-12-14T18:26:39.009Z,36.30
2022-12-14T18:29:27.533Z,43.60
2022-12-14T18:32:16.151Z,42.43
2022-12-14T18:35:06.867Z,38.93
2022-12-14T18:37:55.591Z,47.20
2022-12-14T18:40:49.406Z,39.67
2022-12-14T18:43:43.448Z,36.13
2022-12-14T18:46:32.514Z,39.77
2022-12-14T18:49:21.019Z,39.70
2022-12-14T18:52:11.212Z,44.57
2022-12-14T18:55:03.960Z,39.57
2022-12-14T18:57:55.732Z,39.10
2022-12-14T19:00:44.907Z,41.23
2022-12-14T19:03:33.957Z,38.60
2022-12-14T19:09:34.953Z,38.17
2022-12-14T19:12:23.937Z,44.07
2022-12-14T19:15:15.663Z,37.47
2022-12-14T19:18:04.362Z,44.00
2022-12-14T19:20:52.856Z,42.27
2022-12-14T19:23:41.324Z,40.67
2022-12-14T19:26:32.712Z,39.80
2022-12-14T19:29:21.280Z,41.70
2022-12-14T19:32:10.013Z,38.53
2022-12-14T19:34:58.585Z,39.90
2022-12-14T19:37:47.363Z,46.20
2022-12-14T19:40:35.848Z,39.13
2022-12-14T19:43:25.679Z,36.73
2022-12-14T19:46:15.469Z,39.33
2022-12-14T19:49:04.039Z,44.10
2022-12-14T19:51:53.360Z,43.73
2022-12-14T19:54:41.951Z,43.57
2022-12-14T19:57:30.428Z,42.00
2022-12-14T20:00:20.524Z,38.23
2022-12-14T20:03:09.141Z,37.50
2022-12-14T20:06:00.095Z,36.97
2022-12-14T20:08:49.309Z,37.87
2022-12-14T20:11:38.272Z,40.73
2022-12-14T20:14:27.149Z,38.00
2022-12-14T20:17:17.202Z,42.10
2022-12-14T20:20:06.658Z,36.97
2022-12-14T20:22:55.209Z,42.30
2022-12-14T20:25:43.879Z,37.77
2022-12-14T20:28:33.059Z,41.97
2022-12-14T20:31:22.369Z,45.93
2022-12-14T20:34:12.375Z,37.53
2022-12-14T20:37:00.965Z,39.57
2022-12-14T20:39:49.539Z,38.60
2022-12-14T20:42:38.179Z,45.73
2022-12-14T20:45:26.931Z,42.17
2022-12-14T20:48:15.535Z,41.23
2022-12-14T20:51:05.620Z,40.30
2022-12-14T20:53:54.193Z,35.77
2022-12-14T20:56:42.897Z,36.80
2022-12-14T20:59:31.555Z,44.83
2022-12-14T21:02:21.742Z,38.07
2022-12-14T21:05:10.749Z,39.93
2022-12-14T21:08:00.695Z,39.30
2022-12-14T21:10:49.243Z,37.50
2022-12-14T21:13:37.807Z,40.20
2022-12-14T21:16:26.346Z,39.50
2022-12-14T21:19:17.704Z,36.50
2022-12-14T21:22:07.107Z,39.20
2022-12-14T21:25:06.187Z,40.97
2022-12-14T21:27:55.448Z,41.77
2022-12-14T21:30:44.318Z,42.70
2022-12-14T21:33:35.563Z,54.10
2022-12-14T21:36:24.133Z,37.90
2022-12-14T21:39:13.609Z,42.10
2022-12-14T21:42:15.346Z,38.47
2022-12-14T21:45:04.863Z,36.77
2022-12-14T21:47:53.372Z,50.73
2022-12-14T21:50:43.651Z,45.53
2022-12-14T21:53:35.452Z,48.57
2022-12-14T21:56:41.890Z,44.97
2022-12-14T21:59:33.751Z,42.47
2022-12-14T22:02:24.105Z,39.30
2022-12-14T22:05:13.123Z,40.80
2022-12-14T22:08:01.665Z,41.93
2022-12-14T22:10:50.202Z,38.30
2022-12-14T22:13:38.928Z,45.53
2022-12-14T22:16:29.760Z,41.43
2022-12-14T22:19:19.603Z,41.13
2022-12-14T22:22:08.489Z,38.40
2022-12-14T22:24:57.107Z,34.83
2022-12-14T22:27:49.936Z,47.43
2022-12-14T22:30:38.775Z,42.30
2022-12-14T22:33:30.467Z,39.20
2022-12-14T22:36:19.608Z,39.33
2022-12-14T22:39:08.139Z,38.77
2022-12-14T22:41:56.630Z,37.00
2022-12-14T22:44:45.154Z,41.87
2022-12-14T22:47:34.607Z,44.23
2022-12-14T22:50:24.446Z,39.87
2022-12-14T22:53:14.052Z,41.10
2022-12-14T22:56:06.155Z,37.23
2022-12-14T22:58:58.536Z,43.63
2022-12-14T23:01:50.153Z,38.40
2022-12-14T23:04:39.192Z,43.30
2022-12-14T23:07:29.082Z,36.37
2022-12-14T23:10:35.041Z,40.37
2022-12-14T23:13:41.109Z,40.93
2022-12-14T23:16:50.108Z,41.10
2022-12-14T23:19:58.716Z,40.20
2022-12-14T23:23:10.024Z,43.57
2022-12-14T23:26:19.820Z,43.30
2022-12-14T23:29:25.902Z,38.50
2022-12-14T23:32:31.840Z,35.27
2022-12-14T23:35:38.102Z,40.63
2022-12-14T23:38:45.668Z,44.70
2022-12-14T23:41:51.646Z,40.23
2022-12-14T23:44:57.626Z,40.00
2022-12-14T23:48:03.476Z,36.27
2022-12-14T23:51:09.363Z,39.30
2022-12-14T23:54:16.628Z,37.10
2022-12-14T23:57:25.848Z,38.80
